Česky Dansk Deutsch English Español Suomi Français Magyar Italiano Nederlands norsk Polski Português svenska Türkçe

 

Het Weer

Abha (Saudi-Arabië)

23:00, 16 August 2016 (GMT)

NWNNE
WE
SWSSE
Home            
Abha Khamis Mushait Gizan Sa'Ada / Sadah Bisha Najran Al Baha Al-Hazm Sana'A Wadi Al Dawasser Airport Hodeidah Marib Taif Massawa Makkah Sharurah Jeddah Asmara Jeddah King Abdul Aziz International Airport Taiz Mokha Assab Mokha

Om een weerknop op uw website of weblog te plaatsen, copieer onderstaande code en plak die in uw pagina. In het eerste vakje staat HTML-code, in het tweede vakje UBB-code.


Add to Google

Details

Wind speed:2 bf, 4 kn, 2.1 m/s, 4.6 miles/h, 7.4 km/h
Wind direction:SSW, 200°
Sichtweite:Weiter als 10000 m, 10 km, 32800 ft, 6.2 miles
Clouds:CAVOC
Temperatur:21°C, 70°F
Taupunkt:15°C, 59°F
Luftdruck:1020 hPa, 765.1 mmHg, 30.12 inHg, 1.007 atm
Relative Luftfeuchtigkeit:68.6 %
METAR:OEAB 162300Z 20004KT CAVOK 21/15 Q1020 NOSIG

Snelkoppelingen

Actuele weersinformatie van de hele wereld. Voeg locaties toe met het plus (+) symbool. Deze snelkoppelingen kunnen worden toegevoegd aan Google.

Lid van de Technetium groep

website free tracking
StatCounter NetStat W3C Validator

17-04-2021 10:46:49
astro.technetium.be money.technetium.be phote.technetium.be tafeltennistafel.technetium.be www.ligfiets.net